EJU68BZ EGHI-LEBL
Flight info
| Callsign | EJU68BZ |
|---|---|
| Flight time | N/A |
| Altitude | 33000 |
| Route | GWC UN859 SOPIL DCT BALAN DCT EVPOK DCT NARAK DCT GAI DCT LOMRA DCT ROCAN DCT PUMAL |
| Aircraft | A20N/M-SDE2E3FGHIRWXY/LB1 |
Departure
| Time | N/A |
|---|---|
| Airport | Southampton Airport (EGHI) |
Arrival
| Time | 2026-05-07 10:03 |
|---|---|
| Airport | Josep Tarradellas Barcelona-El Prat Airport (LEBL) |
| Time | Latitude | Longitude | Altitude | Speed | Heading |
|---|---|---|---|---|---|
| 2026-05-07 09:27 | 44.02268 | 1.80920 | 37007 ft | 420 kts | 175° |
| 2026-05-07 09:28 | 43.92675 | 1.82693 | 37005 ft | 417 kts | 180° |
| 2026-05-07 09:28 | 43.86435 | 1.83293 | 37005 ft | 416 kts | 180° |
| 2026-05-07 09:29 | 43.80049 | 1.83917 | 37005 ft | 416 kts | 180° |
| 2026-05-07 09:29 | 43.73759 | 1.84528 | 37005 ft | 416 kts | 180° |
| 2026-05-07 09:30 | 43.67474 | 1.85136 | 37006 ft | 416 kts | 180° |
| 2026-05-07 09:30 | 43.61575 | 1.85705 | 37000 ft | 415 kts | 180° |
| 2026-05-07 09:31 | 43.55408 | 1.86300 | 37004 ft | 415 kts | 180° |
| 2026-05-07 09:31 | 43.49073 | 1.86910 | 36999 ft | 414 kts | 180° |
| 2026-05-07 09:32 | 43.42917 | 1.87504 | 36995 ft | 413 kts | 180° |
| 2026-05-07 09:32 | 43.36630 | 1.88107 | 36995 ft | 413 kts | 180° |
| 2026-05-07 09:33 | 43.30390 | 1.88701 | 36994 ft | 412 kts | 180° |
| 2026-05-07 09:33 | 43.24002 | 1.89310 | 36989 ft | 412 kts | 180° |
| 2026-05-07 09:34 | 43.17683 | 1.89912 | 36997 ft | 412 kts | 180° |
| 2026-05-07 09:34 | 43.11577 | 1.90494 | 36745 ft | 410 kts | 180° |
| 2026-05-07 09:34 | 43.08437 | 1.90795 | 36482 ft | 407 kts | 180° |
| 2026-05-07 09:35 | 43.05247 | 1.91098 | 36261 ft | 404 kts | 180° |
| 2026-05-07 09:35 | 43.02010 | 1.91407 | 36056 ft | 401 kts | 181° |
| 2026-05-07 09:35 | 42.98914 | 1.91702 | 35826 ft | 399 kts | 181° |
| 2026-05-07 09:35 | 42.95809 | 1.91995 | 35590 ft | 398 kts | 181° |
| 2026-05-07 09:36 | 42.92738 | 1.92284 | 35353 ft | 398 kts | 181° |
| 2026-05-07 09:36 | 42.89732 | 1.92567 | 35056 ft | 398 kts | 181° |
| 2026-05-07 09:36 | 42.86861 | 1.92840 | 34668 ft | 398 kts | 181° |
| 2026-05-07 09:36 | 42.83886 | 1.93121 | 34042 ft | 398 kts | 181° |
| 2026-05-07 09:37 | 42.80923 | 1.93398 | 33413 ft | 398 kts | 180° |
| 2026-05-07 09:37 | 42.77945 | 1.93679 | 32751 ft | 398 kts | 180° |
| 2026-05-07 09:37 | 42.75140 | 1.93943 | 32105 ft | 398 kts | 180° |
| 2026-05-07 09:37 | 42.72362 | 1.94204 | 31463 ft | 398 kts | 180° |
| 2026-05-07 09:38 | 42.69595 | 1.94464 | 30811 ft | 398 kts | 180° |
| 2026-05-07 09:38 | 42.66748 | 1.94820 | 30137 ft | 400 kts | 177° |
| 2026-05-07 09:38 | 42.63962 | 1.95355 | 29542 ft | 399 kts | 175° |
| 2026-05-07 09:38 | 42.60954 | 1.95966 | 29066 ft | 394 kts | 175° |
| 2026-05-07 09:39 | 42.57943 | 1.96575 | 28566 ft | 389 kts | 175° |
| 2026-05-07 09:39 | 42.54930 | 1.97184 | 28063 ft | 385 kts | 175° |
| 2026-05-07 09:39 | 42.52073 | 1.97760 | 27579 ft | 381 kts | 175° |
| 2026-05-07 09:39 | 42.49086 | 1.98361 | 27063 ft | 378 kts | 175° |
| 2026-05-07 09:40 | 42.46112 | 1.98962 | 26549 ft | 375 kts | 175° |
| 2026-05-07 09:40 | 42.43165 | 1.99556 | 26044 ft | 371 kts | 175° |
| 2026-05-07 09:40 | 42.40181 | 2.00155 | 25529 ft | 368 kts | 175° |
| 2026-05-07 09:40 | 42.37367 | 2.00713 | 25046 ft | 372 kts | 175° |
| 2026-05-07 09:41 | 42.34485 | 2.01114 | 24712 ft | 382 kts | 178° |
| 2026-05-07 09:41 | 42.31531 | 2.01470 | 24710 ft | 385 kts | 178° |
| 2026-05-07 09:41 | 42.28419 | 2.01853 | 24484 ft | 386 kts | 178° |
| 2026-05-07 09:41 | 42.25428 | 2.02217 | 24098 ft | 383 kts | 178° |
| 2026-05-07 09:42 | 42.22385 | 2.02585 | 23694 ft | 381 kts | 177° |
| 2026-05-07 09:42 | 42.19318 | 2.02860 | 23148 ft | 374 kts | 185° |
| 2026-05-07 09:42 | 42.16420 | 2.01943 | 22375 ft | 369 kts | 206° |
| 2026-05-07 09:42 | 42.13972 | 1.99763 | 21732 ft | 364 kts | 220° |
| 2026-05-07 09:43 | 42.11747 | 1.97278 | 21156 ft | 360 kts | 220° |
| 2026-05-07 09:43 | 42.09505 | 1.94767 | 20590 ft | 359 kts | 220° |
| 2026-05-07 09:43 | 42.07271 | 1.92275 | 20039 ft | 357 kts | 220° |
| 2026-05-07 09:43 | 42.05116 | 1.89881 | 19518 ft | 355 kts | 220° |
| 2026-05-07 09:44 | 42.02981 | 1.87514 | 18996 ft | 354 kts | 220° |
| 2026-05-07 09:44 | 42.00825 | 1.85129 | 18459 ft | 353 kts | 220° |
| 2026-05-07 09:44 | 41.98650 | 1.82726 | 17926 ft | 352 kts | 220° |
| 2026-05-07 09:44 | 41.96450 | 1.80300 | 17395 ft | 349 kts | 220° |
| 2026-05-07 09:45 | 41.94272 | 1.77900 | 16873 ft | 346 kts | 220° |
| 2026-05-07 09:45 | 41.92161 | 1.75574 | 16363 ft | 344 kts | 219° |
| 2026-05-07 09:45 | 41.90001 | 1.73197 | 15833 ft | 341 kts | 219° |
| 2026-05-07 09:45 | 41.87923 | 1.70913 | 15328 ft | 339 kts | 219° |
| 2026-05-07 09:46 | 41.85802 | 1.68583 | 14811 ft | 337 kts | 219° |
| 2026-05-07 09:46 | 41.83749 | 1.66331 | 14323 ft | 336 kts | 219° |
| 2026-05-07 09:46 | 41.81656 | 1.64037 | 13814 ft | 334 kts | 219° |
| 2026-05-07 09:46 | 41.79604 | 1.61792 | 13315 ft | 332 kts | 220° |
| 2026-05-07 09:47 | 41.77598 | 1.59598 | 12813 ft | 329 kts | 220° |
| 2026-05-07 09:47 | 41.75573 | 1.57384 | 12317 ft | 327 kts | 220° |
| 2026-05-07 09:47 | 41.73535 | 1.55500 | 11837 ft | 326 kts | 208° |
| 2026-05-07 09:47 | 41.71395 | 1.54427 | 11401 ft | 326 kts | 195° |
| 2026-05-07 09:48 | 41.69054 | 1.53784 | 10956 ft | 325 kts | 192° |
| 2026-05-07 09:48 | 41.66737 | 1.53222 | 10571 ft | 319 kts | 191° |
| 2026-05-07 09:48 | 41.64565 | 1.52695 | 10271 ft | 311 kts | 192° |
| 2026-05-07 09:48 | 41.62457 | 1.52174 | 10116 ft | 298 kts | 192° |
| 2026-05-07 09:49 | 41.60361 | 1.51647 | 9986 ft | 289 kts | 192° |
| 2026-05-07 09:49 | 41.58253 | 1.51112 | 9617 ft | 289 kts | 192° |
| 2026-05-07 09:49 | 41.56019 | 1.50555 | 9216 ft | 285 kts | 189° |
| 2026-05-07 09:49 | 41.53845 | 1.50431 | 8884 ft | 282 kts | 176° |
| 2026-05-07 09:50 | 41.51817 | 1.50791 | 8900 ft | 285 kts | 172° |
| 2026-05-07 09:50 | 41.49775 | 1.51259 | 8928 ft | 285 kts | 171° |
| 2026-05-07 09:50 | 41.47655 | 1.51756 | 8949 ft | 286 kts | 171° |
| 2026-05-07 09:50 | 41.45498 | 1.52255 | 8961 ft | 286 kts | 171° |
| 2026-05-07 09:51 | 41.43525 | 1.52704 | 8939 ft | 286 kts | 171° |
| 2026-05-07 09:51 | 41.41532 | 1.53154 | 8752 ft | 287 kts | 171° |
| 2026-05-07 09:51 | 41.39444 | 1.53621 | 8422 ft | 285 kts | 171° |
| 2026-05-07 09:51 | 41.37450 | 1.54069 | 8099 ft | 284 kts | 169° |
| 2026-05-07 09:52 | 41.35601 | 1.54971 | 7746 ft | 282 kts | 143° |
| 2026-05-07 09:52 | 41.34354 | 1.57075 | 7360 ft | 279 kts | 110° |
| 2026-05-07 09:52 | 41.34050 | 1.59819 | 6985 ft | 276 kts | 89° |
| 2026-05-07 09:52 | 41.34077 | 1.62567 | 6663 ft | 274 kts | 89° |
| 2026-05-07 09:53 | 41.34082 | 1.65275 | 6369 ft | 271 kts | 89° |
| 2026-05-07 09:53 | 41.34062 | 1.67983 | 6143 ft | 262 kts | 90° |
| 2026-05-07 09:53 | 41.33987 | 1.70449 | 6011 ft | 249 kts | 99° |
| 2026-05-07 09:53 | 41.33203 | 1.72464 | 5895 ft | 239 kts | 139° |
| 2026-05-07 09:54 | 41.31497 | 1.73646 | 5938 ft | 242 kts | 158° |
| 2026-05-07 09:54 | 41.29917 | 1.74494 | 5955 ft | 242 kts | 157° |
| 2026-05-07 09:54 | 41.28354 | 1.75300 | 5959 ft | 242 kts | 166° |
| 2026-05-07 09:54 | 41.26657 | 1.75154 | 5957 ft | 243 kts | 205° |
| 2026-05-07 09:55 | 41.25280 | 1.73543 | 5964 ft | 243 kts | 242° |
| 2026-05-07 09:55 | 41.24587 | 1.71497 | 5827 ft | 238 kts | 248° |
| 2026-05-07 09:55 | 41.23857 | 1.69171 | 5386 ft | 241 kts | 247° |
| 2026-05-07 09:55 | 41.22989 | 1.67111 | 4981 ft | 241 kts | 223° |
| 2026-05-07 09:56 | 41.21381 | 1.66118 | 4592 ft | 237 kts | 179° |
| 2026-05-07 09:56 | 41.19793 | 1.66635 | 4417 ft | 224 kts | 148° |
| 2026-05-07 09:56 | 41.18669 | 1.67961 | 4255 ft | 212 kts | 122° |
| 2026-05-07 09:56 | 41.18050 | 1.69703 | 4076 ft | 205 kts | 108° |
| 2026-05-07 09:57 | 41.17846 | 1.71526 | 3806 ft | 202 kts | 89° |
| 2026-05-07 09:57 | 41.18020 | 1.73365 | 3525 ft | 202 kts | 76° |
| 2026-05-07 09:57 | 41.18470 | 1.75164 | 3219 ft | 202 kts | 68° |
| 2026-05-07 09:57 | 41.19068 | 1.76857 | 2972 ft | 199 kts | 65° |
| 2026-05-07 09:58 | 41.19679 | 1.78503 | 2959 ft | 200 kts | 65° |
| 2026-05-07 09:58 | 41.20303 | 1.80230 | 2948 ft | 200 kts | 66° |
| 2026-05-07 09:58 | 41.20899 | 1.81933 | 2945 ft | 201 kts | 66° |
| 2026-05-07 09:58 | 41.21482 | 1.83635 | 2944 ft | 198 kts | 67° |
| 2026-05-07 09:59 | 41.22023 | 1.85229 | 3003 ft | 176 kts | 67° |
| 2026-05-07 09:59 | 41.22511 | 1.86674 | 2973 ft | 169 kts | 68° |
| 2026-05-07 09:59 | 41.23004 | 1.88139 | 2958 ft | 170 kts | 68° |
| 2026-05-07 09:59 | 41.23489 | 1.89576 | 2806 ft | 170 kts | 68° |
| 2026-05-07 10:00 | 41.23969 | 1.90999 | 2584 ft | 170 kts | 68° |
| 2026-05-07 10:00 | 41.24456 | 1.92437 | 2360 ft | 169 kts | 68° |
| 2026-05-07 10:00 | 41.24943 | 1.93871 | 2136 ft | 169 kts | 68° |
| 2026-05-07 10:00 | 41.25431 | 1.95307 | 1915 ft | 168 kts | 67° |
| 2026-05-07 10:01 | 41.25943 | 1.96810 | 1677 ft | 166 kts | 68° |
| 2026-05-07 10:01 | 41.26487 | 1.98406 | 1434 ft | 166 kts | 68° |
| 2026-05-07 10:01 | 41.27027 | 1.99994 | 1189 ft | 164 kts | 67° |
| 2026-05-07 10:01 | 41.27561 | 2.01554 | 945 ft | 147 kts | 66° |
| 2026-05-07 10:02 | 41.28037 | 2.02945 | 706 ft | 137 kts | 69° |
| 2026-05-07 10:02 | 41.28481 | 2.04252 | 517 ft | 136 kts | 66° |
| 2026-05-07 10:02 | 41.28947 | 2.05612 | 330 ft | 137 kts | 68° |
| 2026-05-07 10:02 | 41.29420 | 2.06980 | 118 ft | 137 kts | 69° |
| 2026-05-07 10:03 | 41.29864 | 2.08318 | 27 ft | 130 kts | 68° |
| 2026-05-07 10:03 | 41.30208 | 2.09323 | 24 ft | 75 kts | 65° |
| 2026-05-07 10:03 | 41.30421 | 2.09933 | 25 ft | 59 kts | 65° |
| 2026-05-07 10:03 | 41.30560 | 2.10333 | 25 ft | 17 kts | 57° |
| 2026-05-07 10:04 | 41.30668 | 2.10339 | 25 ft | 13 kts | 335° |
| 2026-05-07 10:04 | 41.30768 | 2.10280 | 25 ft | 14 kts | 336° |
| 2026-05-07 10:04 | 41.30833 | 2.10212 | 25 ft | 11 kts | 283° |
| 2026-05-07 10:04 | 41.30806 | 2.10096 | 25 ft | 12 kts | 245° |
| 2026-05-07 10:05 | 41.30766 | 2.09980 | 25 ft | 13 kts | 245° |
| 2026-05-07 10:05 | 41.30717 | 2.09837 | 25 ft | 14 kts | 245° |
| 2026-05-07 10:05 | 41.30665 | 2.09688 | 24 ft | 15 kts | 246° |
| 2026-05-07 10:05 | 41.30611 | 2.09532 | 25 ft | 16 kts | 245° |
| 2026-05-07 10:06 | 41.30556 | 2.09371 | 25 ft | 16 kts | 246° |
| 2026-05-07 10:06 | 41.30499 | 2.09200 | 25 ft | 17 kts | 245° |
| 2026-05-07 10:06 | 41.30442 | 2.09035 | 24 ft | 14 kts | 245° |
| 2026-05-07 10:06 | 41.30387 | 2.08893 | 24 ft | 15 kts | 246° |
| 2026-05-07 10:07 | 41.30335 | 2.08738 | 24 ft | 15 kts | 245° |
| 2026-05-07 10:07 | 41.30297 | 2.08630 | 24 ft | 7 kts | 244° |
| 2026-05-07 10:07 | 41.30290 | 2.08611 | 24 ft | 1 kts | 244° |
| 2026-05-07 10:07 | 41.30279 | 2.08580 | 24 ft | 4 kts | 245° |
| 2026-05-07 10:08 | 41.30262 | 2.08528 | 24 ft | 6 kts | 246° |
| 2026-05-07 10:08 | 41.30265 | 2.08461 | 24 ft | 7 kts | 311° |
| 2026-05-07 10:08 | 41.30325 | 2.08419 | 24 ft | 9 kts | 335° |
| 2026-05-07 10:08 | 41.30382 | 2.08382 | 24 ft | 7 kts | 325° |
| 2026-05-07 10:09 | 41.30405 | 2.08333 | 24 ft | 2 kts | 282° |
| 2026-05-07 10:09 | 41.30407 | 2.08315 | 24 ft | 0 kts | 277° |